Time;durP1;ratioP1;P1;durP2;ratioP2;P2;SDS_P1;SDS_P2;PMS_P1;PMS_P2;Temp;Humidity;BMP_temperature;BMP_pressure;BME280_temperature;BME280_humidity;BME280_pressure;Samples;Min_cycle;Max_cycle;Signal;HPM_P1;HPM_P2
2022/06/15 00:02:28;;;;;;;3.50;3.20;;;18.30;68.50;;;;;;7374120;19;21288;-40
2022/06/15 00:04:58;;;;;;;5.93;3.30;;;18.20;68.80;;;;;;7355373;19;20371;-43
2022/06/15 00:07:27;;;;;;;6.23;3.50;;;18.20;69.70;;;;;;7371834;19;20424;-43
2022/06/15 00:10:00;;;;;;;3.80;3.47;;;18.10;70.20;;;;;;7377261;19;20917;-43
2022/06/15 00:12:30;;;;;;;4.70;3.40;;;18.30;69.20;;;;;;7376722;19;20383;-44
2022/06/15 00:14:59;;;;;;;4.47;3.37;;;18.40;68.70;;;;;;7368243;19;20376;-43
2022/06/15 00:17:29;;;;;;;3.83;3.00;;;18.20;69.10;;;;;;7364704;19;21025;-43
2022/06/15 00:19:58;;;;;;;5.13;3.13;;;18.00;69.90;;;;;;7371488;19;20413;-43
2022/06/15 00:22:28;;;;;;;6.27;3.70;;;18.00;70.40;;;;;;7372172;19;20372;-43
2022/06/15 00:25:00;;;;;;;6.33;2.83;;;18.00;70.10;;;;;;7373796;19;20388;-43
2022/06/15 00:27:29;;;;;;;5.37;3.67;;;18.00;70.40;;;;;;7378291;19;20384;-44
2022/06/15 00:29:59;;;;;;;3.37;3.07;;;18.10;70.20;;;;;;7374896;19;20376;-41
2022/06/15 00:32:31;;;;;;;3.10;2.47;;;18.20;69.70;;;;;;7371382;19;20387;-41
2022/06/15 00:35:00;;;;;;;3.90;3.50;;;18.20;70.10;;;;;;7374830;19;20392;-41
2022/06/15 00:37:30;;;;;;;6.20;3.80;;;18.10;70.90;;;;;;7375900;19;20463;-41
2022/06/15 00:40:02;;;;;;;3.63;2.80;;;17.90;71.80;;;;;;7375207;19;20500;-41
2022/06/15 00:42:32;;;;;;;3.37;3.03;;;18.10;70.00;;;;;;7365531;19;20372;-41
2022/06/15 00:45:05;;;;;;;3.67;3.30;;;18.00;69.90;;;;;;7375453;19;21016;-41
2022/06/15 00:47:38;;;;;;;4.43;2.93;;;18.00;69.90;;;;;;7369490;19;21355;-41
2022/06/15 00:50:10;;;;;;;3.73;3.10;;;17.90;70.50;;;;;;7372276;19;20474;-41
2022/06/15 00:52:44;;;;;;;4.27;3.23;;;17.80;71.00;;;;;;7368370;19;21035;-41
2022/06/15 00:55:22;;;;;;;4.47;2.90;;;17.80;71.30;;;;;;7374834;19;20384;-41
2022/06/15 00:57:55;;;;;;;5.87;3.27;;;17.60;71.50;;;;;;7356122;19;20388;-41
2022/06/15 01:00:27;;;;;;;4.90;3.90;;;17.60;72.50;;;;;;7368601;19;20381;-41
2022/06/15 01:02:57;;;;;;;4.90;2.77;;;17.60;72.70;;;;;;7367170;19;20376;-40
2022/06/15 01:05:34;;;;;;;4.27;3.20;;;17.70;72.60;;;;;;7368300;19;20432;-41
2022/06/15 01:08:22;;;;;;;4.03;3.30;;;17.60;72.30;;;;;;7372393;19;20375;-40
2022/06/15 01:11:16;;;;;;;3.60;2.63;;;17.60;73.10;;;;;;7369360;19;20411;-41
2022/06/15 01:13:57;;;;;;;5.53;3.33;;;17.60;72.90;;;;;;7369840;19;20383;-41
2022/06/15 01:16:40;;;;;;;5.03;3.60;;;17.50;72.90;;;;;;7364533;19;20765;-40
2022/06/15 01:19:36;;;;;;;3.40;3.10;;;17.60;73.20;;;;;;7368471;19;20375;-41
2022/06/15 01:22:17;;;;;;;6.60;3.40;;;17.80;72.90;;;;;;7371270;19;20380;-41
2022/06/15 01:25:11;;;;;;;5.13;3.80;;;17.70;72.90;;;;;;7370445;19;20443;-41
2022/06/15 01:28:10;;;;;;;4.40;3.27;;;17.60;74.10;;;;;;7371262;19;20372;-42
2022/06/15 01:30:49;;;;;;;5.43;3.57;;;17.60;73.30;;;;;;7347447;19;20416;-41
2022/06/15 01:33:28;;;;;;;7.50;3.50;;;17.70;71.60;;;;;;7369555;19;20423;-41
2022/06/15 01:36:07;;;;;;;4.17;3.00;;;17.60;74.20;;;;;;7371083;19;20376;-41
2022/06/15 01:38:42;;;;;;;3.23;2.93;;;17.70;74.40;;;;;;7373717;19;20376;-41
2022/06/15 01:41:20;;;;;;;5.37;3.47;;;17.70;75.20;;;;;;7372882;19;20360;-44
2022/06/15 01:43:57;;;;;;;4.53;3.30;;;17.40;76.20;;;;;;7368304;19;20445;-44
2022/06/15 01:46:30;;;;;;;3.70;3.10;;;17.10;77.50;;;;;;7362237;19;20965;-44
2022/06/15 01:49:05;;;;;;;6.77;3.50;;;17.30;76.90;;;;;;7368375;19;20802;-44
2022/06/15 01:51:41;;;;;;;5.63;3.73;;;17.20;76.60;;;;;;7366379;19;20456;-43
2022/06/15 01:54:14;;;;;;;5.87;4.20;;;17.10;78.30;;;;;;7363342;19;20920;-43
2022/06/15 01:56:46;;;;;;;6.50;4.83;;;17.40;76.50;;;;;;7358592;19;20468;-44
2022/06/15 01:59:23;;;;;;;3.40;3.10;;;17.50;74.70;;;;;;7365011;19;20372;-43
2022/06/15 02:02:03;;;;;;;6.13;3.30;;;17.30;76.00;;;;;;7368632;19;20383;-44
2022/06/15 02:04:39;;;;;;;3.20;2.80;;;17.20;77.70;;;;;;7364884;19;20376;-42
2022/06/15 02:07:23;;;;;;;3.60;2.97;;;17.20;77.40;;;;;;7363816;19;20404;-42
2022/06/15 02:09:58;;;;;;;4.13;2.70;;;17.10;77.70;;;;;;7370008;19;20395;-45
2022/06/15 02:12:32;;;;;;;3.40;3.03;;;16.70;80.00;;;;;;7365489;19;20393;-42
2022/06/15 02:15:07;;;;;;;4.80;3.30;;;16.50;81.10;;;;;;7371439;19;20375;-43
2022/06/15 02:17:44;;;;;;;4.40;3.30;;;16.40;81.60;;;;;;7368239;19;20375;-43
2022/06/15 02:20:18;;;;;;;4.40;3.10;;;16.40;82.80;;;;;;7368504;19;20790;-43
2022/06/15 02:22:51;;;;;;;4.80;3.50;;;16.70;81.70;;;;;;7367583;19;21061;-43
2022/06/15 02:25:26;;;;;;;3.33;3.03;;;16.50;82.40;;;;;;7372408;19;20681;-41
2022/06/15 02:27:58;;;;;;;3.80;2.73;;;16.80;80.50;;;;;;7379642;19;20373;-42
2022/06/15 02:30:30;;;;;;;3.37;2.63;;;16.90;79.40;;;;;;7373258;19;20360;-44
2022/06/15 02:33:14;;;;;;;4.07;3.30;;;16.90;79.20;;;;;;7375424;19;20382;-42
2022/06/15 02:35:45;;;;;;;4.80;3.23;;;16.80;79.40;;;;;;7375185;19;21009;-42
2022/06/15 02:38:18;;;;;;;3.30;3.00;;;16.70;79.80;;;;;;7374220;19;20720;-42
2022/06/15 02:40:48;;;;;;;3.30;3.00;;;16.70;80.10;;;;;;7371045;19;20412;-43
2022/06/15 02:43:23;;;;;;;4.20;3.10;;;16.50;81.50;;;;;;7372447;19;20388;-43
2022/06/15 02:45:54;;;;;;;4.47;3.30;;;16.40;83.30;;;;;;7369426;19;20440;-44
2022/06/15 02:48:31;;;;;;;4.40;2.80;;;16.50;82.70;;;;;;7378516;19;20563;-44
2022/06/15 02:51:08;;;;;;;4.73;3.40;;;16.70;81.00;;;;;;7375450;19;20425;-44
2022/06/15 02:53:43;;;;;;;4.47;3.40;;;16.50;81.10;;;;;;7373143;19;20733;-43
2022/06/15 02:56:15;;;;;;;4.23;3.40;;;16.40;81.70;;;;;;7364909;19;21271;-43
2022/06/15 02:58:48;;;;;;;3.70;3.20;;;16.40;82.30;;;;;;7366497;19;20387;-43
2022/06/15 03:01:18;;;;;;;3.43;2.80;;;16.50;81.50;;;;;;7369317;19;20902;-43
2022/06/15 03:03:53;;;;;;;3.43;3.13;;;16.50;81.40;;;;;;7374597;19;20377;-43
2022/06/15 03:06:31;;;;;;;4.03;2.70;;;16.60;81.10;;;;;;7366037;19;21009;-43
2022/06/15 03:09:06;;;;;;;3.77;3.47;;;16.50;81.20;;;;;;7366264;19;20419;-43
2022/06/15 03:11:42;;;;;;;5.17;3.07;;;16.20;82.20;;;;;;7367411;19;20380;-42
2022/06/15 03:14:32;;;;;;;4.40;3.03;;;16.20;82.90;;;;;;7368111;19;20419;-42
2022/06/15 03:17:02;;;;;;;4.97;3.20;;;16.30;82.50;;;;;;7371570;19;20395;-43
2022/06/15 03:19:52;;;;;;;4.03;2.77;;;16.50;82.00;;;;;;7364240;19;20373;-43
2022/06/15 03:22:24;;;;;;;3.60;3.10;;;16.40;82.60;;;;;;7372984;19;21276;-42
2022/06/15 03:24:58;;;;;;;5.40;3.13;;;16.30;83.00;;;;;;7365660;19;20388;-43
2022/06/15 03:27:28;;;;;;;7.00;3.30;;;16.40;83.20;;;;;;7364596;19;20398;-42
2022/06/15 03:30:00;;;;;;;6.60;3.30;;;16.40;83.10;;;;;;7371364;19;20831;-43
2022/06/15 03:32:37;;;;;;;3.93;2.73;;;16.20;84.20;;;;;;7358767;19;20460;-43
2022/06/15 03:35:13;;;;;;;4.80;2.70;;;16.20;84.40;;;;;;7351189;19;21220;-43
2022/06/15 03:37:43;;;;;;;5.10;3.50;;;16.40;84.60;;;;;;7370248;19;20425;-43
2022/06/15 03:40:37;;;;;;;3.50;2.80;;;16.60;83.30;;;;;;7376993;19;20404;-43
2022/06/15 03:43:10;;;;;;;3.83;3.00;;;16.40;84.50;;;;;;7373947;19;20388;-42
2022/06/15 03:45:42;;;;;;;3.93;3.53;;;16.50;84.00;;;;;;7370797;19;20796;-43
2022/06/15 03:48:13;;;;;;;3.57;3.27;;;16.60;83.40;;;;;;7373948;19;20376;-45
2022/06/15 03:50:48;;;;;;;6.80;3.23;;;16.80;82.80;;;;;;7370125;19;20381;-43
2022/06/15 03:53:18;;;;;;;4.43;3.20;;;16.80;82.40;;;;;;7372946;19;20379;-43
2022/06/15 03:55:48;;;;;;;4.27;3.03;;;16.80;82.30;;;;;;7379052;19;21295;-43
2022/06/15 03:58:22;;;;;;;4.03;3.03;;;16.70;82.10;;;;;;7352946;19;20372;-43
2022/06/15 04:00:55;;;;;;;6.40;3.03;;;16.90;81.80;;;;;;7368047;19;20368;-43
2022/06/15 04:03:28;;;;;;;3.80;3.00;;;16.90;82.40;;;;;;7371809;19;20430;-43
2022/06/15 04:06:09;;;;;;;6.07;2.93;;;16.90;82.80;;;;;;7370743;19;20742;-44
2022/06/15 04:08:39;;;;;;;3.37;3.07;;;16.80;83.70;;;;;;7370163;19;20384;-42
2022/06/15 04:14:21;;;;;;;5.73;3.87;;;16.80;84.10;;;;;;7371259;19;20849;-43
2022/06/15 04:17:17;;;;;;;5.50;3.77;;;16.80;84.60;;;;;;7365718;19;21009;-44
2022/06/15 04:22:59;;;;;;;4.93;3.73;;;16.40;88.20;;;;;;7372353;19;20403;-43
2022/06/15 04:25:28;;;;;;;5.20;3.90;;;16.70;86.90;;;;;;7372173;19;20408;-43
2022/06/15 04:27:58;;;;;;;6.37;3.27;;;16.80;86.00;;;;;;7370604;19;20380;-43
2022/06/15 04:30:28;;;;;;;5.10;3.83;;;16.80;87.40;;;;;;7365325;19;20407;-43
2022/06/15 04:32:58;;;;;;;8.47;3.50;;;16.70;87.50;;;;;;7368349;19;20375;-44
2022/06/15 04:35:34;;;;;;;4.03;3.30;;;16.60;88.50;;;;;;7370209;19;20391;-43
2022/06/15 04:38:09;;;;;;;5.63;3.87;;;16.60;89.40;;;;;;7372493;19;20418;-43
2022/06/15 04:40:48;;;;;;;6.50;3.30;;;16.50;89.60;;;;;;7367870;19;20383;-43
2022/06/15 04:43:19;;;;;;;5.63;3.70;;;16.50;90.30;;;;;;7372105;19;22112;-43
2022/06/15 04:45:48;;;;;;;7.10;3.43;;;16.30;90.80;;;;;;7366269;19;20911;-43
2022/06/15 04:48:26;;;;;;;4.13;3.10;;;16.40;91.00;;;;;;7364811;19;20368;-43
2022/06/15 04:50:56;;;;;;;8.77;4.53;;;16.50;90.80;;;;;;7369521;19;20400;-43
2022/06/15 04:53:33;;;;;;;4.10;3.60;;;16.60;90.90;;;;;;7368748;19;20451;-43
2022/06/15 04:56:02;;;;;;;5.30;3.60;;;16.40;91.20;;;;;;7372084;19;20417;-43
2022/06/15 04:58:35;;;;;;;4.33;3.47;;;16.50;91.60;;;;;;7360418;19;20383;-43
2022/06/15 05:01:05;;;;;;;4.40;3.63;;;16.70;91.10;;;;;;7370432;19;21280;-44
2022/06/15 05:03:36;;;;;;;4.50;3.67;;;16.90;90.80;;;;;;7369734;19;21019;-43
2022/06/15 05:06:14;;;;;;;5.23;3.63;;;16.90;90.60;;;;;;7369243;19;20439;-43
2022/06/15 05:08:47;;;;;;;5.33;3.83;;;16.90;90.60;;;;;;7373094;19;20901;-43
2022/06/15 05:11:18;;;;;;;5.07;3.50;;;17.20;90.20;;;;;;7370547;19;21158;-43
2022/06/15 05:13:48;;;;;;;6.07;3.60;;;17.60;88.80;;;;;;7369780;19;20404;-43
2022/06/15 05:16:18;;;;;;;5.53;3.93;;;17.80;87.00;;;;;;7363817;19;20722;-43
2022/06/15 05:18:51;;;;;;;6.10;3.87;;;18.00;84.80;;;;;;7366890;19;20994;-43
2022/06/15 05:21:27;;;;;;;8.43;3.83;;;18.30;83.20;;;;;;7369938;19;20368;-43
2022/06/15 05:23:59;;;;;;;5.87;4.23;;;18.20;83.80;;;;;;7368077;19;20499;-43
2022/06/15 05:26:47;;;;;;;4.17;3.30;;;18.20;84.10;;;;;;7371294;19;20380;-43
2022/06/15 05:29:17;;;;;;;6.10;3.83;;;18.20;83.80;;;;;;7369753;19;21084;-44
2022/06/15 05:31:48;;;;;;;5.50;3.40;;;18.20;83.80;;;;;;7362366;19;20388;-43
2022/06/15 05:34:18;;;;;;;7.93;3.80;;;18.40;83.70;;;;;;7363476;19;20980;-44
2022/06/15 05:36:50;;;;;;;5.00;3.70;;;18.50;82.50;;;;;;7373813;19;20455;-44
2022/06/15 05:39:22;;;;;;;8.50;3.70;;;18.70;81.70;;;;;;7371223;19;20387;-43
2022/06/15 05:41:52;;;;;;;6.10;5.00;;;18.70;81.30;;;;;;7367456;19;20387;-43
2022/06/15 05:44:27;;;;;;;5.00;3.90;;;18.70;81.20;;;;;;7367142;19;20368;-43
2022/06/15 05:47:02;;;;;;;5.70;4.10;;;18.70;81.20;;;;;;7361722;19;20799;-44
2022/06/15 05:49:50;;;;;;;5.77;3.97;;;18.80;80.80;;;;;;7371055;19;20376;-40
2022/06/15 05:52:26;;;;;;;6.80;3.80;;;18.80;81.10;;;;;;7365172;19;20391;-41
2022/06/15 05:55:00;;;;;;;5.90;4.33;;;19.00;80.50;;;;;;7372113;19;20412;-41
2022/06/15 05:57:30;;;;;;;6.33;4.97;;;19.40;79.60;;;;;;7370513;19;21827;-41
2022/06/15 06:00:03;;;;;;;6.77;3.83;;;19.50;79.00;;;;;;7376152;19;20387;-41
2022/06/15 06:02:43;;;;;;;13.50;8.60;;;19.70;79.10;;;;;;7374853;19;20375;-41
2022/06/15 06:05:12;;;;;;;7.50;4.30;;;19.80;77.60;;;;;;7379899;19;20427;-41
2022/06/15 06:07:42;;;;;;;4.53;3.33;;;19.90;77.10;;;;;;7370092;19;20419;-41
2022/06/15 06:10:14;;;;;;;6.80;3.70;;;20.10;76.30;;;;;;7382520;19;20375;-41
2022/06/15 06:12:44;;;;;;;9.67;3.93;;;20.30;75.90;;;;;;7377445;19;20380;-41
2022/06/15 06:15:18;;;;;;;8.57;4.07;;;20.30;74.50;;;;;;7377517;19;20420;-41
2022/06/15 06:17:48;;;;;;;4.30;4.00;;;20.50;75.10;;;;;;7376699;19;20380;-41
2022/06/15 06:20:17;;;;;;;3.47;3.17;;;20.70;72.70;;;;;;7374323;19;20412;-43
2022/06/15 06:22:47;;;;;;;5.30;3.93;;;20.90;71.80;;;;;;7379615;19;20372;-44
2022/06/15 06:25:19;;;;;;;7.07;3.63;;;21.10;70.40;;;;;;7374014;19;20939;-44
2022/06/15 06:27:49;;;;;;;8.17;4.30;;;21.20;71.40;;;;;;7372411;19;21207;-44
2022/06/15 06:30:21;;;;;;;4.40;3.60;;;21.30;70.90;;;;;;7374346;19;20840;-45
2022/06/15 06:32:50;;;;;;;6.43;3.67;;;21.50;70.40;;;;;;7378976;19;20371;-45
2022/06/15 06:35:20;;;;;;;7.27;4.63;;;21.70;67.90;;;;;;7377472;19;20364;-47
2022/06/15 06:37:50;;;;;;;6.83;4.73;;;21.80;67.10;;;;;;7375372;19;20390;-45
2022/06/15 06:40:22;;;;;;;5.70;3.70;;;22.00;66.20;;;;;;7375798;19;20415;-44
2022/06/15 06:42:51;;;;;;;5.47;3.83;;;22.20;65.00;;;;;;7364520;19;20375;-45
2022/06/15 06:45:22;;;;;;;6.53;4.90;;;22.30;64.00;;;;;;7358190;19;20387;-44
2022/06/15 06:47:51;;;;;;;9.90;4.43;;;22.40;64.30;;;;;;7370181;19;20427;-44
2022/06/15 06:50:22;;;;;;;4.47;4.07;;;22.50;62.50;;;;;;7371995;19;20380;-45
2022/06/15 06:52:52;;;;;;;13.00;4.40;;;22.60;62.50;;;;;;7369245;19;20440;-45
2022/06/15 06:55:28;;;;;;;5.23;4.47;;;22.70;61.30;;;;;;7359799;19;20388;-45
2022/06/15 06:57:57;;;;;;;4.50;3.37;;;22.90;60.60;;;;;;7326053;19;20403;-45
2022/06/15 07:00:27;;;;;;;17.70;6.37;;;23.00;60.30;;;;;;7374536;19;20383;-45
2022/06/15 07:02:57;;;;;;;8.30;4.50;;;23.10;60.00;;;;;;7361790;19;20384;-45
2022/06/15 07:05:26;;;;;;;6.97;4.30;;;23.20;59.50;;;;;;7370405;19;20376;-45
2022/06/15 07:07:56;;;;;;;17.33;4.97;;;23.30;59.00;;;;;;7375129;19;20396;-44
2022/06/15 07:10:28;;;;;;;8.87;4.13;;;23.40;58.40;;;;;;7363586;19;20367;-44
2022/06/15 07:12:58;;;;;;;8.10;3.90;;;23.50;58.10;;;;;;7373574;19;20764;-45
2022/06/15 07:15:27;;;;;;;7.47;3.83;;;23.60;57.40;;;;;;7373046;19;20428;-44
2022/06/15 07:18:00;;;;;;;4.10;2.93;;;23.70;57.00;;;;;;7371457;19;21040;-44
2022/06/15 07:20:30;;;;;;;3.40;3.10;;;23.40;54.30;;;;;;7342601;19;21311;-43
2022/06/15 07:23:02;;;;;;;4.30;2.57;;;23.10;54.60;;;;;;7359100;19;21720;-46
2022/06/15 07:25:35;;;;;;;3.93;2.93;;;22.90;55.60;;;;;;7368990;19;20420;-45
2022/06/15 07:28:05;;;;;;;4.67;3.17;;;22.90;55.50;;;;;;7373918;19;20413;-45
2022/06/15 07:30:37;;;;;;;4.20;2.80;;;23.00;55.10;;;;;;7374476;19;20380;-45
2022/06/15 07:33:06;;;;;;;3.20;2.90;;;23.20;54.80;;;;;;7372455;19;20839;-45
2022/06/15 07:35:38;;;;;;;4.60;2.90;;;23.20;54.40;;;;;;7376643;19;20962;-45
2022/06/15 07:38:08;;;;;;;7.50;3.33;;;23.30;54.60;;;;;;7377240;19;20379;-45
2022/06/15 07:40:40;;;;;;;7.03;3.50;;;23.20;55.00;;;;;;7380035;19;20379;-44
2022/06/15 07:43:10;;;;;;;5.00;3.37;;;23.40;55.10;;;;;;7365610;19;20368;-44
2022/06/15 07:45:39;;;;;;;4.27;3.23;;;23.50;55.50;;;;;;7375441;19;20364;-45
2022/06/15 07:50:51;;;;;;;4.63;3.53;;;23.80;54.10;;;;;;7376207;19;20368;-45
2022/06/15 07:53:22;;;;;;;4.33;3.80;;;23.90;54.10;;;;;;7374532;19;20404;-45
2022/06/15 07:55:54;;;;;;;5.53;3.43;;;24.10;54.00;;;;;;7379532;19;20384;-44
2022/06/15 07:58:24;;;;;;;3.57;2.80;;;24.20;53.80;;;;;;7376913;19;20368;-45
2022/06/15 08:00:54;;;;;;;5.30;3.27;;;24.30;53.50;;;;;;7380168;19;20411;-44
2022/06/15 08:03:24;;;;;;;6.60;3.10;;;24.40;53.50;;;;;;7379720;19;20376;-45
2022/06/15 08:05:53;;;;;;;3.90;2.87;;;24.40;52.60;;;;;;7378763;19;20817;-41
2022/06/15 08:08:26;;;;;;;5.47;2.83;;;24.60;53.20;;;;;;7373794;19;20376;-42
2022/06/15 08:10:58;;;;;;;4.23;3.83;;;24.70;52.70;;;;;;7378480;19;20402;-41
2022/06/15 08:13:28;;;;;;;5.70;3.40;;;24.90;52.80;;;;;;7380300;19;20744;-41
2022/06/15 08:15:57;;;;;;;6.13;3.20;;;25.00;52.20;;;;;;7380766;19;20447;-42
2022/06/15 08:18:31;;;;;;;10.33;3.00;;;25.20;52.20;;;;;;7379876;19;20387;-42
2022/06/15 08:21:04;;;;;;;6.87;3.47;;;25.40;51.80;;;;;;7373701;19;20393;-42
2022/06/15 08:23:37;;;;;;;6.77;2.97;;;25.70;51.20;;;;;;7376628;19;21273;-42
2022/06/15 08:26:15;;;;;;;4.90;3.03;;;25.90;51.30;;;;;;7374414;19;20376;-42
2022/06/15 08:28:47;;;;;;;3.83;3.03;;;26.10;50.60;;;;;;7376716;19;20419;-42
2022/06/15 08:31:17;;;;;;;4.33;3.10;;;26.30;50.30;;;;;;7377359;19;20372;-44
2022/06/15 08:33:47;;;;;;;5.13;3.00;;;26.50;50.20;;;;;;7379570;19;20379;-44
2022/06/15 08:36:17;;;;;;;5.20;3.60;;;26.60;49.40;;;;;;7375910;19;20729;-44
2022/06/15 08:38:49;;;;;;;5.53;3.40;;;26.60;48.90;;;;;;7374728;19;20415;-44
2022/06/15 08:41:30;;;;;;;11.33;6.10;;;26.70;49.00;;;;;;7375907;19;21598;-43
2022/06/15 08:44:12;;;;;;;5.47;3.70;;;26.90;48.80;;;;;;7376352;19;20372;-44
2022/06/15 08:46:52;;;;;;;9.67;4.53;;;27.10;48.20;;;;;;7375315;19;20475;-44
2022/06/15 08:49:43;;;;;;;8.30;4.03;;;27.40;47.60;;;;;;7373967;19;20383;-45
2022/06/15 08:52:18;;;;;;;10.30;4.20;;;27.60;47.20;;;;;;7374035;19;20389;-45
2022/06/15 08:55:00;;;;;;;9.90;3.90;;;27.80;46.70;;;;;;7377505;19;20379;-45
2022/06/15 08:57:40;;;;;;;8.03;4.30;;;28.00;46.10;;;;;;7375803;19;20372;-45
2022/06/15 09:00:18;;;;;;;4.83;2.67;;;28.20;45.60;;;;;;7378087;19;20389;-45
2022/06/15 09:02:59;;;;;;;5.47;3.93;;;28.40;45.10;;;;;;7373825;19;20404;-45
2022/06/15 09:05:39;;;;;;;5.40;3.40;;;28.50;44.90;;;;;;7374424;19;20428;-45
2022/06/15 09:08:27;;;;;;;7.87;3.60;;;28.70;45.40;;;;;;7372282;19;20417;-46
2022/06/15 09:11:07;;;;;;;5.40;3.73;;;29.10;44.40;;;;;;7373300;19;20371;-46
2022/06/15 09:13:52;;;;;;;8.00;4.20;;;29.30;43.90;;;;;;7374693;19;20766;-45
2022/06/15 09:16:29;;;;;;;8.90;5.10;;;29.40;43.70;;;;;;7376795;19;20389;-45
2022/06/15 09:19:06;;;;;;;7.60;3.83;;;29.80;42.70;;;;;;7374257;19;20398;-46
2022/06/15 09:21:41;;;;;;;8.70;4.90;;;29.90;42.70;;;;;;7374248;19;21365;-45
2022/06/15 09:24:16;;;;;;;4.87;4.00;;;30.10;42.10;;;;;;7374417;19;20395;-44
2022/06/15 09:26:51;;;;;;;6.77;4.17;;;30.20;41.50;;;;;;7376585;19;20936;-44
2022/06/15 09:29:27;;;;;;;5.17;4.30;;;30.40;41.40;;;;;;7374930;19;20367;-45
2022/06/15 09:32:02;;;;;;;9.27;5.10;;;30.50;41.40;;;;;;7371063;19;20369;-42
2022/06/15 09:34:37;;;;;;;5.27;4.07;;;30.90;40.60;;;;;;7374379;19;20934;-42
2022/06/15 09:37:15;;;;;;;7.60;4.73;;;31.30;40.20;;;;;;7376214;19;20412;-42
2022/06/15 09:39:46;;;;;;;4.47;3.83;;;31.60;39.60;;;;;;7373343;19;20789;-42
2022/06/15 09:42:21;;;;;;;6.77;5.07;;;32.10;39.00;;;;;;7374676;19;20431;-42
2022/06/15 09:45:09;;;;;;;7.00;4.43;;;32.60;38.10;;;;;;7374134;19;20942;-42
2022/06/15 09:47:52;;;;;;;7.83;3.97;;;32.90;37.00;;;;;;7368409;19;20413;-43
2022/06/15 09:50:31;;;;;;;8.00;4.60;;;33.30;36.30;;;;;;7377048;19;20990;-43
2022/06/15 09:53:23;;;;;;;6.40;4.77;;;33.70;35.50;;;;;;7377184;19;20632;-43
2022/06/15 09:55:56;;;;;;;4.47;3.40;;;34.00;34.70;;;;;;7376869;19;20380;-42
2022/06/15 09:58:31;;;;;;;6.47;3.60;;;34.10;34.40;;;;;;7367931;19;20388;-42
2022/06/15 10:01:04;;;;;;;4.77;3.23;;;34.60;33.60;;;;;;7371456;19;20410;-44
2022/06/15 10:03:37;;;;;;;9.80;2.73;;;34.90;31.80;;;;;;7371940;19;20375;-45
2022/06/15 10:06:16;;;;;;;3.17;2.80;;;35.30;31.40;;;;;;7370280;19;20385;-46
2022/06/15 10:08:46;;;;;;;4.37;3.10;;;35.50;31.10;;;;;;7374633;19;20389;-46
2022/06/15 10:11:21;;;;;;;3.93;3.43;;;36.10;30.30;;;;;;7360476;19;20452;-46
2022/06/15 10:13:50;;;;;;;4.40;2.97;;;36.50;30.20;;;;;;7359468;19;20955;-46
2022/06/15 10:16:33;;;;;;;3.37;2.37;;;37.00;29.50;;;;;;7359412;19;20383;-44
2022/06/15 10:19:10;;;;;;;4.53;3.63;;;37.40;28.90;;;;;;7367304;19;20428;-44
2022/06/15 10:21:40;;;;;;;3.73;3.23;;;37.60;29.00;;;;;;7363812;19;20380;-45
2022/06/15 10:24:26;;;;;;;4.17;3.00;;;38.10;28.60;;;;;;7359999;19;20451;-45
2022/06/15 10:27:31;;;;;;;18.93;4.00;;;38.50;28.00;;;;;;7350568;19;21082;-45
2022/06/15 10:30:05;;;;;;;3.00;2.70;;;38.80;27.80;;;;;;7366564;19;20380;-45
2022/06/15 10:32:35;;;;;;;4.50;3.17;;;39.00;27.60;;;;;;7367580;19;20378;-45
2022/06/15 10:35:16;;;;;;;3.90;3.13;;;39.30;27.20;;;;;;7370034;19;20372;-46
2022/06/15 10:37:51;;;;;;;5.53;2.93;;;39.60;26.90;;;;;;7367789;19;20372;-45
2022/06/15 10:40:25;;;;;;;3.67;2.53;;;40.00;26.30;;;;;;7373887;19;20387;-45
2022/06/15 10:43:04;;;;;;;3.33;3.00;;;40.20;26.40;;;;;;7369013;19;20391;-45
2022/06/15 10:45:37;;;;;;;4.70;2.83;;;40.70;25.80;;;;;;7378372;19;20371;-44
2022/06/15 10:48:15;;;;;;;4.13;2.97;;;41.10;25.30;;;;;;7380936;19;21688;-45
2022/06/15 10:50:50;;;;;;;4.33;2.87;;;41.00;25.20;;;;;;7382034;19;20793;-45
2022/06/15 10:53:34;;;;;;;3.63;3.33;;;41.20;25.20;;;;;;7381367;19;20896;-45
2022/06/15 11:04:28;;;;;;;4.37;2.50;;;42.50;23.70;;;;;;7380658;19;20910;-42
2022/06/15 11:07:05;;;;;;;3.53;2.40;;;42.60;23.10;;;;;;7374240;19;20435;-42
2022/06/15 11:09:40;;;;;;;3.90;2.80;;;42.40;23.20;;;;;;7378298;19;20445;-42
2022/06/15 11:12:25;;;;;;;6.70;2.83;;;42.20;23.80;;;;;;7376311;19;20950;-42
2022/06/15 11:15:04;;;;;;;3.00;2.60;;;42.10;23.80;;;;;;7382130;19;20372;-43
2022/06/15 11:20:45;;;;;;;4.27;2.87;;;42.70;23.50;;;;;;7375614;19;20416;-43
2022/06/15 11:23:19;;;;;;;3.60;2.60;;;43.10;23.20;;;;;;7375914;19;20434;-43
2022/06/15 11:25:56;;;;;;;3.40;2.80;;;43.10;23.30;;;;;;7376619;19;20372;-43
2022/06/15 11:28:33;;;;;;;3.43;2.10;;;43.00;23.20;;;;;;7374173;19;20421;-43
2022/06/15 11:31:11;;;;;;;4.50;2.70;;;43.30;23.60;;;;;;7378716;19;20446;-46
2022/06/15 11:33:46;;;;;;;2.90;2.60;;;43.50;22.50;;;;;;7377139;19;20437;-46
2022/06/15 11:36:25;;;;;;;3.00;2.50;;;44.00;22.30;;;;;;7370429;19;20372;-46
2022/06/15 11:38:59;;;;;;;3.30;2.30;;;43.90;22.60;;;;;;7376920;19;20392;-46
2022/06/15 11:41:32;;;;;;;4.03;2.20;;;43.70;22.40;;;;;;7377909;19;20368;-46
2022/06/15 11:44:04;;;;;;;3.97;2.53;;;43.80;22.40;;;;;;7375454;19;20895;-46
2022/06/15 11:47:03;;;;;;;4.57;2.73;;;43.70;22.50;;;;;;7376419;19;20429;-46
2022/06/15 11:49:41;;;;;;;3.10;2.40;;;43.90;22.10;;;;;;7371050;19;20383;-46
2022/06/15 11:52:37;;;;;;;4.90;2.80;;;44.10;22.20;;;;;;7375389;19;20391;-48
2022/06/15 11:55:34;;;;;;;3.57;3.20;;;44.20;21.80;;;;;;7366221;19;20906;-47
2022/06/15 11:58:31;;;;;;;2.43;2.33;;;44.00;22.10;;;;;;7372533;19;20842;-47
2022/06/15 12:01:17;;;;;;;2.70;2.30;;;44.20;21.30;;;;;;7372218;19;20373;-46
2022/06/15 12:04:26;;;;;;;4.53;2.33;;;44.40;21.40;;;;;;7377656;19;20368;-46
2022/06/15 12:07:04;;;;;;;3.23;2.93;;;44.30;21.50;;;;;;7376241;19;20437;-46
2022/06/15 12:09:57;;;;;;;2.80;2.20;;;43.50;21.70;;;;;;7376788;19;20412;-46
2022/06/15 12:12:41;;;;;;;5.67;2.57;;;43.50;22.10;;;;;;7376314;19;20388;-47
2022/06/15 12:15:44;;;;;;;4.90;2.47;;;43.90;21.00;;;;;;7379509;19;20376;-46
2022/06/15 12:18:42;;;;;;;2.73;2.40;;;44.20;21.00;;;;;;7367409;19;21031;-46
2022/06/15 12:21:23;;;;;;;4.70;2.87;;;44.30;21.40;;;;;;7375383;19;20414;-45
2022/06/15 12:23:59;;;;;;;4.43;3.27;;;44.60;21.10;;;;;;7373198;19;20485;-46
2022/06/15 12:26:50;;;;;;;2.87;2.10;;;44.40;21.40;;;;;;7377861;19;20416;-46
2022/06/15 12:29:32;;;;;;;2.80;2.50;;;44.60;20.60;;;;;;7378121;19;20368;-47
2022/06/15 12:32:23;;;;;;;3.07;2.17;;;44.10;21.90;;;;;;7373146;19;21029;-46
2022/06/15 12:35:01;;;;;;;3.47;2.40;;;44.20;21.00;;;;;;7372308;19;20388;-46
2022/06/15 12:37:38;;;;;;;2.97;2.67;;;44.20;21.00;;;;;;7368334;19;20690;-46
2022/06/15 12:40:16;;;;;;;2.33;2.20;;;44.20;21.20;;;;;;7374378;19;20368;-43
2022/06/15 12:42:53;;;;;;;2.90;2.00;;;44.10;21.10;;;;;;7378508;19;20372;-43
2022/06/15 12:45:27;;;;;;;3.77;2.00;;;44.00;20.60;;;;;;7377199;19;20367;-43
2022/06/15 12:48:01;;;;;;;3.30;2.27;;;44.00;21.30;;;;;;7370306;19;20368;-43
2022/06/15 12:50:42;;;;;;;2.37;2.00;;;44.10;21.10;;;;;;7375066;19;20962;-43
2022/06/15 12:53:27;;;;;;;3.00;2.40;;;43.90;20.80;;;;;;7373815;19;20916;-44
2022/06/15 12:56:04;;;;;;;3.77;2.60;;;43.70;21.60;;;;;;7376224;19;20376;-43
2022/06/15 12:58:41;;;;;;;3.30;2.27;;;43.70;21.40;;;;;;7376076;19;20384;-43
2022/06/15 13:01:16;;;;;;;3.20;2.33;;;44.00;21.30;;;;;;7373029;19;20395;-43
2022/06/15 13:03:59;;;;;;;3.10;2.70;;;44.30;21.00;;;;;;7375688;19;21111;-44
2022/06/15 13:06:30;;;;;;;2.97;2.30;;;44.70;20.80;;;;;;7362241;19;20380;-43
2022/06/15 13:09:21;;;;;;;2.23;2.03;;;44.60;20.70;;;;;;7373295;19;20372;-43
2022/06/15 13:12:06;;;;;;;2.13;1.97;;;44.30;20.70;;;;;;7378371;19;20388;-43
2022/06/15 13:14:39;;;;;;;2.23;2.03;;;43.90;21.20;;;;;;7374359;19;20376;-43
2022/06/15 13:17:14;;;;;;;2.80;2.50;;;42.90;21.40;;;;;;7349944;19;20444;-43
2022/06/15 13:19:46;;;;;;;5.47;2.57;;;42.30;21.90;;;;;;7372348;19;20475;-43
2022/06/15 13:22:27;;;;;;;3.70;2.17;;;42.50;21.80;;;;;;7375910;19;20383;-43
2022/06/15 13:25:09;;;;;;;2.40;2.20;;;42.80;21.90;;;;;;7356884;19;20391;-43
2022/06/15 13:27:46;;;;;;;5.97;2.50;;;42.60;22.70;;;;;;7369325;19;20415;-43
2022/06/15 13:30:28;;;;;;;3.20;2.30;;;42.30;22.30;;;;;;7373119;19;20411;-43
2022/06/15 13:33:01;;;;;;;3.07;2.40;;;42.40;21.90;;;;;;7373179;19;20450;-43
2022/06/15 13:35:34;;;;;;;2.27;2.10;;;42.20;22.30;;;;;;7374023;19;20413;-43
2022/06/15 13:38:34;;;;;;;6.13;2.40;;;41.50;22.30;;;;;;7356409;19;20451;-43
2022/06/15 13:41:19;;;;;;;3.50;2.50;;;41.40;22.50;;;;;;7362053;19;20894;-43
2022/06/15 13:44:23;;;;;;;4.60;3.00;;;40.40;23.10;;;;;;7370403;19;20372;-43
2022/06/15 13:47:01;;;;;;;4.13;2.30;;;39.90;23.60;;;;;;7362014;19;20540;-43
2022/06/15 13:49:41;;;;;;;3.20;2.67;;;39.30;24.20;;;;;;7368149;19;20415;-43
2022/06/15 13:52:17;;;;;;;3.40;2.70;;;38.40;24.80;;;;;;7361145;19;20413;-42